Time;durP1;ratioP1;P1;durP2;ratioP2;P2;SDS_P1;SDS_P2;PMS_P1;PMS_P2;Temp;Humidity;BMP_temperature;BMP_pressure;BME280_temperature;BME280_humidity;BME280_pressure;Samples;Min_cycle;Max_cycle;Signal;HPM_P1;HPM_P2
2020/12/31 00:00:20;;;;;;;279.65;28.83;;;3.50;99.90;;;;;;5029192;28;20044;-58
2020/12/31 00:03:24;;;;;;;171.30;24.15;;;3.50;99.90;;;;;;5030257;28;20045;-56
2020/12/31 00:06:28;;;;;;;476.08;37.90;;;3.50;99.90;;;;;;5030036;28;20052;-57
2020/12/31 00:09:33;;;;;;;723.33;48.35;;;3.50;99.90;;;;;;5029940;28;20048;-55
2020/12/31 00:12:37;;;;;;;81.00;15.02;;;3.40;99.90;;;;;;5028465;28;20064;-56
2020/12/31 00:15:41;;;;;;;291.67;26.02;;;3.40;99.90;;;;;;5017952;28;20432;-57
2020/12/31 00:18:45;;;;;;;422.02;34.90;;;3.40;99.90;;;;;;5029759;28;20033;-56
2020/12/31 00:21:49;;;;;;;547.42;40.28;;;3.30;99.90;;;;;;5028834;28;20036;-58
2020/12/31 00:24:54;;;;;;;79.50;16.13;;;3.30;99.90;;;;;;5029621;28;20048;-55
2020/12/31 00:27:58;;;;;;;76.45;14.55;;;3.20;99.90;;;;;;5029608;28;20041;-56
2020/12/31 00:31:02;;;;;;;125.20;16.17;;;3.30;99.90;;;;;;5017018;28;20395;-59
2020/12/31 00:34:06;;;;;;;107.15;15.02;;;3.20;99.90;;;;;;5029457;28;20048;-59
2020/12/31 00:37:10;;;;;;;89.78;14.52;;;3.20;99.90;;;;;;5029329;28;20073;-58
2020/12/31 00:40:15;;;;;;;55.65;12.30;;;3.20;99.90;;;;;;5015419;28;20136;-58
2020/12/31 00:43:21;;;;;;;88.93;14.57;;;3.20;99.90;;;;;;5029339;28;20048;-59
2020/12/31 00:46:25;;;;;;;50.92;11.80;;;3.20;99.90;;;;;;5018365;28;20056;-59
2020/12/31 00:49:29;;;;;;;65.60;13.35;;;3.10;99.90;;;;;;5015351;28;20044;-55
2020/12/31 00:52:33;;;;;;;54.70;11.93;;;3.10;99.90;;;;;;5027717;28;20048;-59
2020/12/31 00:55:37;;;;;;;126.13;16.58;;;3.10;99.90;;;;;;5028359;28;20040;-56
2020/12/31 00:58:42;;;;;;;94.20;14.10;;;3.00;99.90;;;;;;5028274;28;20530;-57
2020/12/31 01:01:46;;;;;;;132.20;16.33;;;3.00;99.90;;;;;;5028288;28;20041;-56
2020/12/31 01:04:49;;;;;;;48.08;14.35;;;3.00;99.90;;;;;;5015696;28;20037;-56
2020/12/31 01:07:54;;;;;;;76.63;14.38;;;3.00;99.90;;;;;;5028999;28;20045;-58
2020/12/31 01:10:58;;;;;;;247.02;24.33;;;3.00;99.90;;;;;;5028999;28;20470;-58
2020/12/31 01:14:06;;;;;;;114.45;15.73;;;3.00;99.90;;;;;;5017378;28;20049;-58
2020/12/31 01:17:10;;;;;;;119.32;17.77;;;3.00;99.90;;;;;;5015060;28;20056;-57
2020/12/31 01:20:14;;;;;;;138.15;20.40;;;3.00;99.90;;;;;;5029078;28;20429;-56
2020/12/31 01:23:19;;;;;;;37.78;12.32;;;2.90;99.90;;;;;;5028337;28;20119;-54
2020/12/31 01:26:33;;;;;;;190.43;20.77;;;2.90;99.90;;;;;;5029297;28;20426;-57
2020/12/31 01:29:38;;;;;;;85.90;12.68;;;2.90;99.90;;;;;;5029248;28;20423;-58
2020/12/31 01:32:43;;;;;;;73.25;13.43;;;2.90;99.90;;;;;;5028567;28;20045;-56
2020/12/31 01:35:47;;;;;;;415.83;30.83;;;2.90;99.90;;;;;;5028785;28;20045;-58
2020/12/31 01:38:52;;;;;;;275.20;29.30;;;2.90;99.90;;;;;;5028385;28;20372;-56
2020/12/31 01:42:04;;;;;;;52.30;13.98;;;2.80;99.90;;;;;;5028149;28;20943;-58
2020/12/31 01:45:08;;;;;;;109.57;16.00;;;2.90;99.90;;;;;;5021450;28;20439;-57
2020/12/31 01:48:13;;;;;;;67.45;14.75;;;2.90;99.90;;;;;;5028997;28;20052;-58
2020/12/31 01:51:17;;;;;;;58.03;13.98;;;2.90;99.90;;;;;;5015606;28;20040;-57
2020/12/31 01:54:22;;;;;;;50.65;14.07;;;2.90;99.90;;;;;;5028196;28;20037;-57
2020/12/31 01:57:28;;;;;;;46.38;14.25;;;2.80;99.90;;;;;;5031470;28;20244;-58
2020/12/31 02:00:32;;;;;;;58.63;15.07;;;2.80;99.90;;;;;;5032358;28;20117;-56
2020/12/31 02:03:36;;;;;;;68.78;16.63;;;2.80;99.90;;;;;;5030959;28;20048;-55
2020/12/31 02:06:41;;;;;;;38.28;13.15;;;2.80;99.90;;;;;;5029871;28;20048;-58
2020/12/31 02:09:46;;;;;;;54.45;14.25;;;2.90;99.90;;;;;;5031704;28;20399;-56
2020/12/31 02:12:52;;;;;;;89.95;17.25;;;2.90;99.90;;;;;;5031528;28;20049;-57
2020/12/31 02:15:56;;;;;;;32.42;12.65;;;2.90;99.90;;;;;;5031680;28;20048;-55
2020/12/31 02:19:04;;;;;;;31.23;12.15;;;2.90;99.90;;;;;;5018608;28;20045;-58
2020/12/31 02:22:10;;;;;;;37.33;10.48;;;2.90;99.90;;;;;;5031132;28;20041;-56
2020/12/31 02:25:14;;;;;;;91.20;13.80;;;2.80;99.90;;;;;;5031774;28;20037;-58
2020/12/31 02:28:19;;;;;;;112.72;17.92;;;2.80;99.90;;;;;;5031547;28;20101;-58
2020/12/31 02:31:25;;;;;;;69.28;14.98;;;2.70;99.90;;;;;;5031513;28;20044;-59
2020/12/31 02:34:30;;;;;;;60.47;13.52;;;2.70;99.90;;;;;;5031133;28;20044;-58
2020/12/31 02:37:34;;;;;;;121.45;16.33;;;2.60;99.90;;;;;;5017491;28;20087;-57
2020/12/31 02:40:38;;;;;;;87.95;13.82;;;2.60;99.90;;;;;;5031376;28;20041;-57
2020/12/31 02:43:43;;;;;;;50.97;13.38;;;2.60;99.90;;;;;;5030730;28;20036;-58
2020/12/31 02:46:48;;;;;;;39.22;12.65;;;2.60;99.90;;;;;;5031574;28;20514;-56
2020/12/31 02:49:52;;;;;;;41.83;13.60;;;2.60;99.90;;;;;;5031448;28;20044;-57
2020/12/31 02:52:56;;;;;;;42.35;11.75;;;2.60;99.90;;;;;;5017231;28;20052;-56
2020/12/31 02:56:08;;;;;;;44.67;12.32;;;2.60;99.90;;;;;;5030415;28;20499;-56
2020/12/31 02:59:12;;;;;;;37.58;11.20;;;2.60;99.90;;;;;;5031090;28;20407;-57
2020/12/31 03:02:16;;;;;;;38.83;10.65;;;2.60;99.90;;;;;;5031467;28;20043;-57
2020/12/31 03:05:20;;;;;;;45.00;11.93;;;2.70;99.90;;;;;;5031290;28;20044;-57
2020/12/31 03:08:24;;;;;;;48.78;14.23;;;2.70;99.90;;;;;;5030057;28;20495;-56
2020/12/31 03:11:28;;;;;;;38.33;12.52;;;2.70;99.90;;;;;;5029999;28;20048;-57
2020/12/31 03:14:32;;;;;;;29.73;11.27;;;2.70;99.90;;;;;;5030820;28;20049;-56
2020/12/31 03:17:38;;;;;;;26.75;9.98;;;2.70;99.90;;;;;;5030544;28;20060;-56
2020/12/31 03:20:43;;;;;;;27.45;10.57;;;2.80;99.90;;;;;;5017253;28;20162;-56
2020/12/31 03:23:48;;;;;;;42.83;13.18;;;2.80;99.90;;;;;;5029895;28;20028;-55
2020/12/31 03:26:53;;;;;;;88.90;15.40;;;2.80;99.90;;;;;;5030816;28;20115;-57
2020/12/31 03:29:57;;;;;;;53.75;13.05;;;2.90;99.90;;;;;;5030332;28;20052;-57
2020/12/31 03:33:03;;;;;;;109.15;18.70;;;2.90;99.90;;;;;;5030276;28;20427;-56
2020/12/31 03:36:07;;;;;;;90.55;14.57;;;2.90;99.90;;;;;;5018848;28;20048;-56
2020/12/31 03:39:11;;;;;;;86.90;14.05;;;2.90;99.90;;;;;;5029769;28;20048;-57
2020/12/31 03:42:16;;;;;;;125.22;16.92;;;2.90;99.90;;;;;;5029834;28;20053;-57
2020/12/31 03:45:21;;;;;;;119.30;16.45;;;2.90;99.90;;;;;;5027803;28;20519;-57
2020/12/31 03:48:25;;;;;;;140.38;16.17;;;2.90;99.90;;;;;;5022188;28;20403;-59
2020/12/31 03:51:29;;;;;;;86.30;15.70;;;2.80;99.90;;;;;;5029983;28;20048;-58
2020/12/31 03:54:34;;;;;;;73.10;13.90;;;2.80;99.90;;;;;;5029735;28;20399;-57
2020/12/31 03:57:38;;;;;;;67.05;14.15;;;2.80;99.90;;;;;;5029022;28;20044;-56
2020/12/31 04:00:42;;;;;;;54.83;13.05;;;2.80;99.90;;;;;;5017640;28;20064;-59
2020/12/31 04:03:46;;;;;;;91.30;16.42;;;2.80;99.90;;;;;;5029814;28;20036;-57
2020/12/31 04:06:50;;;;;;;71.72;14.07;;;2.80;99.90;;;;;;5029824;28;20522;-56
2020/12/31 04:09:54;;;;;;;79.70;17.70;;;2.90;99.90;;;;;;5029786;28;20044;-58
2020/12/31 04:12:58;;;;;;;76.05;15.57;;;2.90;99.90;;;;;;5020180;28;20442;-56
2020/12/31 04:16:04;;;;;;;75.78;13.73;;;2.90;99.90;;;;;;5017288;28;20523;-58
2020/12/31 04:19:08;;;;;;;32.70;12.93;;;2.90;99.90;;;;;;5028690;28;20037;-56
2020/12/31 04:22:12;;;;;;;81.28;16.10;;;2.90;99.90;;;;;;5029571;28;20052;-58
2020/12/31 04:25:17;;;;;;;78.47;15.52;;;2.90;99.90;;;;;;5029438;28;20052;-56
2020/12/31 04:28:22;;;;;;;226.00;22.75;;;2.90;99.90;;;;;;5019440;28;20400;-59
2020/12/31 04:31:26;;;;;;;213.82;19.90;;;2.80;99.90;;;;;;5017445;28;20056;-57
2020/12/31 04:34:30;;;;;;;98.57;15.93;;;2.80;99.90;;;;;;5029189;28;20040;-59
2020/12/31 04:37:34;;;;;;;115.20;16.83;;;2.90;99.90;;;;;;5029034;28;20041;-59
2020/12/31 04:40:44;;;;;;;284.27;24.88;;;2.80;99.90;;;;;;5029748;28;20052;-57
2020/12/31 04:43:49;;;;;;;374.17;30.13;;;2.80;99.90;;;;;;5021466;28;20044;-59
2020/12/31 04:46:56;;;;;;;239.48;24.50;;;2.80;99.90;;;;;;5019154;28;20041;-59
2020/12/31 04:50:02;;;;;;;408.83;31.00;;;2.70;99.90;;;;;;5029355;28;20061;-55
2020/12/31 04:53:08;;;;;;;401.38;29.02;;;2.60;99.90;;;;;;5029255;28;20041;-58
2020/12/31 04:56:18;;;;;;;529.08;36.22;;;2.60;99.90;;;;;;5028893;28;20214;-56
2020/12/31 04:59:22;;;;;;;606.17;43.45;;;2.40;99.90;;;;;;5029316;28;20040;-56
2020/12/31 05:02:26;;;;;;;518.30;36.05;;;2.40;99.90;;;;;;5029712;28;20518;-58
2020/12/31 05:05:30;;;;;;;313.42;27.88;;;2.40;99.90;;;;;;5016844;28;20057;-56
2020/12/31 05:08:36;;;;;;;128.98;18.10;;;2.50;99.90;;;;;;5029204;28;20064;-56
2020/12/31 05:11:48;;;;;;;489.67;38.13;;;2.60;99.90;;;;;;5029351;28;20412;-58
2020/12/31 05:14:52;;;;;;;82.63;14.88;;;2.50;99.90;;;;;;5029086;28;20479;-58
2020/12/31 05:17:56;;;;;;;739.03;48.15;;;2.50;99.90;;;;;;5029477;28;20044;-58
2020/12/31 05:21:02;;;;;;;891.97;62.10;;;2.30;99.90;;;;;;5029458;28;20510;-56
2020/12/31 05:24:13;;;;;;;725.45;57.90;;;2.30;99.90;;;;;;5014946;28;20518;-57
2020/12/31 05:27:23;;;;;;;685.30;57.13;;;2.30;99.90;;;;;;5029121;28;20053;-57
2020/12/31 05:30:28;;;;;;;985.35;73.13;;;2.30;99.90;;;;;;5029833;28;20052;-58
2020/12/31 05:33:34;;;;;;;409.88;35.50;;;2.30;99.90;;;;;;5033073;28;20049;-57
2020/12/31 05:36:38;;;;;;;110.95;18.70;;;2.30;99.90;;;;;;5032500;28;20060;-58
2020/12/31 05:39:54;;;;;;;218.40;24.30;;;2.50;99.90;;;;;;5032683;28;20045;-58
2020/12/31 05:42:59;;;;;;;476.08;38.42;;;2.60;99.90;;;;;;5020824;28;20033;-56
2020/12/31 05:46:14;;;;;;;313.65;28.33;;;2.60;99.90;;;;;;5032335;28;20443;-56
2020/12/31 05:49:30;;;;;;;800.58;53.03;;;2.60;99.90;;;;;;5033699;28;20040;-58
2020/12/31 05:52:38;;;;;;;839.58;56.80;;;2.50;99.90;;;;;;5032228;28;20037;-58
2020/12/31 05:55:44;;;;;;;375.92;32.45;;;2.50;99.90;;;;;;5032369;28;20116;-57
2020/12/31 05:58:50;;;;;;;355.58;36.03;;;2.40;99.90;;;;;;5020709;28;20060;-55
2020/12/31 06:01:59;;;;;;;803.75;62.78;;;2.50;99.90;;;;;;5031759;28;20048;-58
2020/12/31 06:05:14;;;;;;;237.57;25.25;;;2.50;99.90;;;;;;5031880;28;20048;-55
2020/12/31 06:08:23;;;;;;;232.40;27.20;;;2.50;99.90;;;;;;5032058;28;20048;-58
2020/12/31 06:11:32;;;;;;;179.32;22.52;;;2.60;99.90;;;;;;5031725;28;20407;-55
2020/12/31 06:14:37;;;;;;;464.50;32.92;;;2.60;99.90;;;;;;5032331;28;20404;-58
2020/12/31 06:17:47;;;;;;;1058.20;84.57;;;2.60;99.90;;;;;;5031558;28;20415;-57
2020/12/31 06:21:01;;;;;;;699.35;69.05;;;2.60;99.90;;;;;;5019815;28;20040;-57
2020/12/31 06:24:13;;;;;;;400.42;33.50;;;2.70;99.90;;;;;;5018617;28;20536;-56
2020/12/31 06:27:18;;;;;;;;;;;2.80;99.90;;;;;;5030925;28;20060;-58
2020/12/31 06:30:25;;;;;;;889.15;73.10;;;2.80;99.90;;;;;;5031565;28;19916;-59
2020/12/31 06:33:38;;;;;;;280.92;27.27;;;2.80;99.90;;;;;;5031881;28;20072;-58
2020/12/31 06:36:43;;;;;;;143.35;20.17;;;2.90;99.90;;;;;;5023848;28;20048;-58
2020/12/31 06:39:47;;;;;;;397.50;33.15;;;2.90;99.90;;;;;;5021433;28;20064;-59
2020/12/31 06:43:06;;;;;;;123.13;20.38;;;2.90;99.90;;;;;;5017442;28;20052;-58
2020/12/31 06:46:20;;;;;;;587.67;40.78;;;2.90;99.90;;;;;;5018180;28;20068;-55
2020/12/31 06:49:53;;;;;;;402.70;29.85;;;2.80;99.90;;;;;;5031468;28;20053;-56
2020/12/31 06:52:57;;;;;;;;;;;2.60;99.90;;;;;;5031395;28;20060;-58
2020/12/31 06:56:12;;;;;;;200.07;19.88;;;2.60;99.90;;;;;;5031015;28;19920;-58
2020/12/31 06:59:45;;;;;;;374.98;34.72;;;2.60;99.90;;;;;;5030837;28;20524;-55
2020/12/31 07:02:50;;;;;;;517.03;39.35;;;2.60;99.90;;;;;;5030843;28;20057;-57
2020/12/31 07:06:20;;;;;;;589.63;57.28;;;2.60;99.90;;;;;;5030965;28;20052;-57
2020/12/31 07:09:36;;;;;;;102.38;16.98;;;2.70;99.90;;;;;;5022621;28;20061;-57
2020/12/31 07:12:45;;;;;;;407.85;29.77;;;2.70;99.90;;;;;;5030958;28;20060;-56
2020/12/31 07:15:49;;;;;;;621.53;45.42;;;2.60;99.90;;;;;;5026906;28;20439;-56
2020/12/31 07:18:55;;;;;;;772.90;51.45;;;2.50;99.90;;;;;;5030950;28;20037;-57
2020/12/31 07:21:59;;;;;;;953.30;68.63;;;2.50;99.90;;;;;;5030282;28;20510;-56
2020/12/31 07:25:12;;;;;;;1219.05;83.45;;;2.40;99.90;;;;;;5030820;28;20045;-57
2020/12/31 07:28:19;;;;;;;711.55;55.13;;;2.30;99.90;;;;;;5030068;28;20522;-55
2020/12/31 07:31:43;;;;;;;115.22;18.15;;;2.30;99.90;;;;;;5024688;28;20036;-57
2020/12/31 07:34:50;;;;;;;332.90;28.60;;;2.50;99.90;;;;;;5030999;28;20052;-55
2020/12/31 07:38:14;;;;;;;550.45;37.20;;;2.50;99.90;;;;;;5018667;28;20040;-55
2020/12/31 07:41:18;;;;;;;692.33;46.58;;;2.60;99.90;;;;;;5032210;28;20507;-55
2020/12/31 07:44:23;;;;;;;262.98;23.90;;;2.50;99.90;;;;;;5033678;28;20511;-56
2020/12/31 07:47:27;;;;;;;219.00;21.65;;;2.30;99.90;;;;;;5027874;28;20056;-56
2020/12/31 07:50:31;;;;;;;782.60;72.95;;;2.40;99.90;;;;;;5030820;28;20415;-57
2020/12/31 07:53:35;;;;;;;38.55;12.45;;;2.40;99.90;;;;;;5029292;28;20053;-55
2020/12/31 07:56:40;;;;;;;107.55;16.35;;;2.50;99.90;;;;;;5032167;28;20056;-57
2020/12/31 07:59:46;;;;;;;50.72;11.68;;;2.50;99.90;;;;;;5033621;28;20048;-56
2020/12/31 08:02:52;;;;;;;712.35;45.95;;;2.50;99.90;;;;;;5032501;28;20045;-57
2020/12/31 08:06:03;;;;;;;586.72;47.25;;;2.40;99.90;;;;;;5042033;28;20040;-56
2020/12/31 08:09:08;;;;;;;221.90;21.73;;;2.30;99.90;;;;;;5044370;28;20072;-58
2020/12/31 08:12:12;;;;;;;734.28;49.03;;;2.30;99.90;;;;;;5024780;28;20048;-56
2020/12/31 08:15:20;;;;;;;776.80;51.10;;;2.20;99.90;;;;;;5028476;28;20049;-58
2020/12/31 08:18:25;;;;;;;827.65;60.63;;;2.20;99.90;;;;;;5033427;28;20423;-58
2020/12/31 08:21:31;;;;;;;1041.90;75.75;;;2.20;99.90;;;;;;5023442;28;20400;-58
2020/12/31 08:24:44;;;;;;;618.60;48.13;;;2.00;99.90;;;;;;5025314;28;20048;-58
2020/12/31 08:27:49;;;;;;;679.83;48.40;;;1.90;99.90;;;;;;5030300;28;20059;-59
2020/12/31 08:30:53;;;;;;;687.50;50.72;;;1.90;99.90;;;;;;5027890;28;20052;-57
2020/12/31 08:34:00;;;;;;;793.92;62.45;;;1.90;99.90;;;;;;5039685;28;20519;-57
2020/12/31 08:37:05;;;;;;;707.58;55.70;;;2.00;99.90;;;;;;5020224;28;20044;-58
2020/12/31 08:40:09;;;;;;;188.15;22.23;;;2.00;99.90;;;;;;5027249;28;20048;-55
2020/12/31 08:43:37;;;;;;;100.95;15.52;;;2.10;99.90;;;;;;5024107;28;20040;-55
2020/12/31 08:46:47;;;;;;;165.63;19.77;;;2.30;99.90;;;;;;5028288;28;20545;-58
2020/12/31 08:49:54;;;;;;;527.92;40.05;;;2.40;99.90;;;;;;5029651;28;20782;-57
2020/12/31 08:53:02;;;;;;;321.55;31.52;;;2.40;99.90;;;;;;5014825;28;20039;-57
2020/12/31 08:56:12;;;;;;;314.85;25.70;;;2.00;99.90;;;;;;5028120;28;20659;-58
2020/12/31 08:59:17;;;;;;;74.65;14.73;;;2.10;99.90;;;;;;5026545;28;20052;-57
2020/12/31 09:02:21;;;;;;;64.88;15.50;;;2.30;99.90;;;;;;5028009;28;20052;-56
2020/12/31 09:05:25;;;;;;;65.82;13.52;;;2.50;99.90;;;;;;5025292;28;20041;-57
2020/12/31 09:08:32;;;;;;;273.83;22.67;;;2.50;99.90;;;;;;5042286;28;20063;-57
2020/12/31 09:11:36;;;;;;;97.63;15.20;;;2.60;99.90;;;;;;5032281;28;20056;-54
2020/12/31 09:14:56;;;;;;;118.10;13.27;;;2.60;99.90;;;;;;5028324;28;20036;-58
2020/12/31 09:18:01;;;;;;;274.70;20.17;;;2.60;99.90;;;;;;5028243;28;20068;-57
2020/12/31 09:21:05;;;;;;;399.08;29.77;;;2.40;99.90;;;;;;5030421;28;20044;-55
2020/12/31 09:24:16;;;;;;;229.77;20.27;;;2.30;99.90;;;;;;5031452;28;20040;-56
2020/12/31 09:27:26;;;;;;;513.30;39.03;;;2.40;99.90;;;;;;5031231;28;20087;-58
2020/12/31 09:30:30;;;;;;;122.30;14.55;;;2.40;99.90;;;;;;5029267;28;20049;-57
2020/12/31 09:33:35;;;;;;;49.40;9.68;;;2.40;99.90;;;;;;5040924;28;20048;-56
2020/12/31 09:36:39;;;;;;;175.82;17.15;;;2.30;99.90;;;;;;5030166;28;20052;-56
2020/12/31 09:39:44;;;;;;;103.47;13.57;;;2.50;99.90;;;;;;5027921;28;20117;-58
2020/12/31 09:42:48;;;;;;;84.15;12.57;;;2.60;99.90;;;;;;5029747;28;20048;-57
2020/12/31 09:45:52;;;;;;;19.88;7.93;;;2.60;99.90;;;;;;5030668;28;20044;-57
2020/12/31 09:48:56;;;;;;;29.40;8.65;;;2.70;99.90;;;;;;5038582;28;20036;-57
2020/12/31 09:52:00;;;;;;;25.92;8.73;;;2.70;99.90;;;;;;5030116;28;20103;-58
2020/12/31 09:55:07;;;;;;;28.15;9.02;;;2.70;99.90;;;;;;5037971;28;20048;-58
2020/12/31 09:58:11;;;;;;;16.27;7.80;;;2.60;99.90;;;;;;5031082;28;20040;-57
2020/12/31 10:01:15;;;;;;;17.58;8.18;;;2.60;99.90;;;;;;5030575;28;20048;-57
2020/12/31 10:04:19;;;;;;;37.90;8.23;;;2.70;99.90;;;;;;5040481;28;21090;-58
2020/12/31 10:07:23;;;;;;;21.63;8.00;;;2.70;99.90;;;;;;5033168;28;20040;-58
2020/12/31 10:10:27;;;;;;;15.88;7.03;;;2.90;99.90;;;;;;5030724;28;20052;-57
2020/12/31 10:13:31;;;;;;;27.40;9.48;;;3.10;99.90;;;;;;5030137;28;20056;-58
2020/12/31 10:16:36;;;;;;;23.98;9.30;;;2.60;99.90;;;;;;5028362;28;20036;-58
2020/12/31 10:19:39;;;;;;;34.95;8.90;;;2.70;99.90;;;;;;5027604;28;20041;-58
2020/12/31 10:22:44;;;;;;;43.90;9.82;;;2.90;99.90;;;;;;5027007;28;20056;-59
2020/12/31 10:25:49;;;;;;;102.68;15.60;;;3.00;99.90;;;;;;5035808;28;20053;-59
2020/12/31 10:28:53;;;;;;;123.75;13.93;;;3.10;99.90;;;;;;5018870;28;20304;-59
2020/12/31 10:31:57;;;;;;;144.35;16.75;;;3.00;99.90;;;;;;5012268;28;20068;-59
2020/12/31 10:35:02;;;;;;;167.45;19.08;;;2.60;99.90;;;;;;5021617;28;20062;-56
2020/12/31 10:38:06;;;;;;;44.20;12.20;;;2.50;99.90;;;;;;5012078;28;20045;-57
2020/12/31 10:41:14;;;;;;;35.00;10.68;;;2.50;99.90;;;;;;5012192;28;20049;-58
2020/12/31 10:44:19;;;;;;;109.45;13.90;;;2.40;99.90;;;;;;5017555;28;20045;-59
2020/12/31 10:47:24;;;;;;;77.38;12.43;;;2.60;99.90;;;;;;5020274;28;20319;-57
2020/12/31 10:50:28;;;;;;;58.78;13.57;;;2.70;99.90;;;;;;5020565;28;20128;-57
2020/12/31 10:53:32;;;;;;;103.80;12.68;;;2.50;99.90;;;;;;5018319;28;20056;-57
2020/12/31 10:56:36;;;;;;;53.45;13.02;;;2.60;99.90;;;;;;5030836;28;20053;-56
2020/12/31 10:59:40;;;;;;;54.78;12.90;;;2.60;99.90;;;;;;5030544;28;20041;-58
2020/12/31 11:02:47;;;;;;;202.63;21.52;;;2.70;99.90;;;;;;5029867;28;20526;-56
2020/12/31 11:05:51;;;;;;;302.10;29.00;;;2.70;99.90;;;;;;5021733;28;20049;-55
2020/12/31 11:08:57;;;;;;;398.73;28.02;;;2.70;99.90;;;;;;5018255;28;20032;-58
2020/12/31 11:12:02;;;;;;;156.35;18.92;;;2.80;99.90;;;;;;5030404;28;20537;-58
2020/12/31 11:15:08;;;;;;;221.45;20.85;;;3.00;99.90;;;;;;5030724;28;20056;-55
2020/12/31 11:18:12;;;;;;;257.13;27.13;;;3.00;99.90;;;;;;5030642;28;20538;-55
2020/12/31 11:21:19;;;;;;;112.93;16.55;;;2.60;99.90;;;;;;5038872;28;20412;-56
2020/12/31 11:24:25;;;;;;;110.68;17.83;;;2.60;99.90;;;;;;5020045;28;20044;-56
2020/12/31 11:27:29;;;;;;;297.00;25.77;;;2.40;99.90;;;;;;5016710;28;20411;-58
2020/12/31 11:30:33;;;;;;;140.27;19.58;;;2.60;99.90;;;;;;5030128;28;20060;-57
2020/12/31 11:33:42;;;;;;;98.25;19.92;;;2.20;99.90;;;;;;5030438;28;20408;-55
2020/12/31 11:36:47;;;;;;;92.30;16.00;;;2.30;99.90;;;;;;5030480;28;20507;-58
2020/12/31 11:39:51;;;;;;;225.65;23.17;;;2.50;99.90;;;;;;5029993;28;20064;-55
2020/12/31 11:42:55;;;;;;;73.57;14.82;;;2.60;99.90;;;;;;5017926;28;20064;-57
2020/12/31 11:46:00;;;;;;;80.78;17.23;;;2.40;99.90;;;;;;5030217;28;20041;-58
2020/12/31 11:49:05;;;;;;;111.32;16.33;;;2.50;99.90;;;;;;5029949;28;20056;-58
2020/12/31 11:52:09;;;;;;;42.28;13.23;;;2.90;99.90;;;;;;5030228;28;20052;-58
2020/12/31 11:55:13;;;;;;;25.35;11.73;;;2.70;99.90;;;;;;5016981;28;20048;-55
2020/12/31 11:58:17;;;;;;;29.20;13.07;;;3.00;99.90;;;;;;5028854;28;20040;-57
2020/12/31 12:01:22;;;;;;;93.85;16.60;;;2.90;99.90;;;;;;5029224;28;20407;-57
2020/12/31 12:04:26;;;;;;;45.75;15.63;;;2.50;99.90;;;;;;5030131;28;20044;-56
2020/12/31 12:07:30;;;;;;;44.53;15.10;;;2.60;99.90;;;;;;5019640;28;20045;-58
2020/12/31 12:10:34;;;;;;;42.17;20.27;;;2.60;99.90;;;;;;5016773;28;20044;-58
2020/12/31 12:13:38;;;;;;;33.92;14.50;;;2.90;99.90;;;;;;5029748;28;20060;-59
2020/12/31 12:16:48;;;;;;;28.95;13.02;;;3.20;99.90;;;;;;5029595;28;20056;-59
2020/12/31 12:19:52;;;;;;;24.55;13.10;;;2.80;99.90;;;;;;5029663;28;20045;-58
2020/12/31 12:22:55;;;;;;;36.28;13.90;;;2.80;99.90;;;;;;5028679;28;20053;-58
2020/12/31 12:25:59;;;;;;;26.75;12.73;;;2.90;99.90;;;;;;5020593;28;20335;-57
2020/12/31 12:29:06;;;;;;;27.83;13.43;;;2.90;99.90;;;;;;5029091;28;20052;-58
2020/12/31 12:32:11;;;;;;;34.47;15.75;;;3.20;99.90;;;;;;5028875;28;20048;-58
2020/12/31 12:35:15;;;;;;;39.13;17.80;;;2.70;99.90;;;;;;5029688;28;20404;-58
2020/12/31 12:38:19;;;;;;;31.85;14.35;;;2.80;99.90;;;;;;5028442;28;20060;-57
2020/12/31 12:41:24;;;;;;;29.45;14.73;;;3.20;99.90;;;;;;5017124;28;20415;-55
2020/12/31 12:44:28;;;;;;;35.42;14.63;;;3.00;99.90;;;;;;5015990;28;20044;-58
2020/12/31 12:47:36;;;;;;;34.88;14.85;;;3.30;99.90;;;;;;5028989;28;20041;-56
2020/12/31 12:50:40;;;;;;;41.03;17.20;;;3.20;99.90;;;;;;5028727;28;20437;-56
2020/12/31 12:53:45;;;;;;;33.92;14.60;;;3.20;99.90;;;;;;5029228;28;20048;-56
2020/12/31 12:56:53;;;;;;;32.38;15.05;;;3.30;99.90;;;;;;5015505;28;20048;-55
2020/12/31 12:59:57;;;;;;;34.88;15.48;;;3.50;99.90;;;;;;5029294;28;20052;-55
2020/12/31 13:03:00;;;;;;;43.03;17.00;;;3.30;99.90;;;;;;5029152;28;20044;-57
2020/12/31 13:06:04;;;;;;;51.50;20.85;;;3.20;99.90;;;;;;5029438;28;20044;-56
2020/12/31 13:09:08;;;;;;;46.13;20.38;;;3.10;99.90;;;;;;5028896;28;20040;-57
2020/12/31 13:12:12;;;;;;;49.05;19.60;;;3.10;99.90;;;;;;5015557;28;20412;-56
2020/12/31 13:15:17;;;;;;;42.63;18.55;;;3.00;99.90;;;;;;5029021;28;20411;-55
2020/12/31 13:18:21;;;;;;;43.63;18.75;;;3.00;99.90;;;;;;5027759;28;20522;-57
2020/12/31 13:21:25;;;;;;;46.22;18.70;;;2.90;99.90;;;;;;5028753;28;20040;-56
2020/12/31 13:24:29;;;;;;;52.90;20.38;;;3.00;99.90;;;;;;5019136;28;20447;-55
2020/12/31 13:27:34;;;;;;;63.05;22.77;;;3.00;99.90;;;;;;5016387;28;20060;-56
2020/12/31 13:30:38;;;;;;;121.78;28.65;;;2.90;99.90;;;;;;5028964;28;20036;-55
2020/12/31 13:33:55;;;;;;;56.97;22.60;;;2.90;99.90;;;;;;5028712;28;20044;-56
2020/12/31 13:36:59;;;;;;;54.10;21.58;;;2.90;99.90;;;;;;5029031;28;20053;-56
2020/12/31 13:40:04;;;;;;;50.72;21.50;;;3.20;99.90;;;;;;5029107;28;20400;-55
2020/12/31 13:43:09;;;;;;;45.40;18.73;;;3.30;99.90;;;;;;5017984;28;20048;-57
2020/12/31 13:46:14;;;;;;;35.88;16.40;;;3.50;99.90;;;;;;5015924;28;20056;-55
2020/12/31 13:49:18;;;;;;;48.75;20.42;;;3.50;99.90;;;;;;5028823;28;20407;-56
2020/12/31 13:52:36;;;;;;;42.15;18.45;;;3.30;99.90;;;;;;5031106;28;20060;-56
2020/12/31 13:55:40;;;;;;;45.92;18.95;;;3.10;99.90;;;;;;5022953;28;20060;-56
2020/12/31 13:58:45;;;;;;;54.78;21.83;;;3.00;99.90;;;;;;5020165;28;20036;-57
2020/12/31 14:01:54;;;;;;;45.90;19.30;;;3.00;99.90;;;;;;5031693;28;20614;-58
2020/12/31 14:04:59;;;;;;;45.97;19.67;;;3.20;99.90;;;;;;5032275;28;20518;-56
2020/12/31 14:08:03;;;;;;;42.30;18.35;;;3.50;99.90;;;;;;5032176;28;20049;-56
2020/12/31 14:11:08;;;;;;;43.88;20.38;;;3.60;99.90;;;;;;5031920;28;20053;-58
2020/12/31 14:14:12;;;;;;;47.50;21.42;;;3.40;99.90;;;;;;5021507;28;20040;-59
2020/12/31 14:17:16;;;;;;;55.95;22.35;;;3.30;99.90;;;;;;5018720;28;20048;-59
2020/12/31 14:20:21;;;;;;;59.92;24.05;;;3.30;99.90;;;;;;5032422;28;20431;-56
2020/12/31 14:23:25;;;;;;;70.55;27.05;;;3.30;99.90;;;;;;5031636;28;20053;-58
2020/12/31 14:30:05;;;;;;;74.43;28.75;;;3.20;99.90;;;;;;5023788;28;20044;-59
2020/12/31 14:33:08;;;;;;;73.72;25.40;;;3.20;99.90;;;;;;5023106;28;20044;-58
2020/12/31 14:36:32;;;;;;;69.63;26.75;;;3.10;99.90;;;;;;5023002;28;20535;-56
2020/12/31 14:39:36;;;;;;;67.03;26.52;;;3.10;99.90;;;;;;5020200;28;20408;-58
2020/12/31 14:42:58;;;;;;;69.85;25.15;;;3.10;99.90;;;;;;5019292;28;20508;-59
2020/12/31 14:46:02;;;;;;;65.38;25.58;;;3.10;99.90;;;;;;5031283;28;20121;-59
2020/12/31 14:49:07;;;;;;;48.65;21.10;;;3.20;99.90;;;;;;5031531;28;20408;-59
2020/12/31 14:52:12;;;;;;;44.17;20.17;;;3.70;99.90;;;;;;5030811;28;20052;-57
2020/12/31 14:55:16;;;;;;;41.33;20.70;;;4.10;99.90;;;;;;5019023;28;20048;-58
2020/12/31 14:58:21;;;;;;;35.70;20.08;;;4.20;99.90;;;;;;5030460;28;20052;-58
2020/12/31 15:01:25;;;;;;;33.25;16.65;;;4.20;99.90;;;;;;5031203;28;20052;-56
2020/12/31 15:04:29;;;;;;;38.03;18.85;;;4.10;99.90;;;;;;5030223;28;20044;-58
2020/12/31 15:07:33;;;;;;;46.20;19.90;;;3.80;99.90;;;;;;5031475;28;20048;-54
2020/12/31 15:10:37;;;;;;;44.70;20.63;;;3.70;99.90;;;;;;5019110;28;20064;-58
2020/12/31 15:14:00;;;;;;;46.95;20.75;;;3.50;99.90;;;;;;5030434;28;20064;-59
2020/12/31 15:17:05;;;;;;;60.25;24.13;;;3.40;99.90;;;;;;5030000;28;20044;-55
2020/12/31 15:20:10;;;;;;;81.43;26.50;;;3.40;99.90;;;;;;5030966;28;20045;-57
2020/12/31 15:23:15;;;;;;;58.00;25.70;;;3.30;99.90;;;;;;5030922;28;20037;-57
2020/12/31 15:26:20;;;;;;;64.90;26.98;;;3.30;99.90;;;;;;5031401;28;20045;-54
2020/12/31 15:29:24;;;;;;;69.70;25.98;;;3.40;99.90;;;;;;5018959;28;20052;-58
2020/12/31 15:32:28;;;;;;;56.55;23.65;;;3.30;99.90;;;;;;5030433;28;20407;-55
2020/12/31 15:35:33;;;;;;;78.68;31.45;;;3.30;99.90;;;;;;5030441;28;20052;-57
2020/12/31 15:38:37;;;;;;;314.58;39.03;;;3.30;99.90;;;;;;5030457;28;20048;-59
2020/12/31 15:41:42;;;;;;;81.78;29.52;;;3.30;99.90;;;;;;5029570;28;20040;-55
2020/12/31 15:44:46;;;;;;;192.65;33.47;;;3.20;99.90;;;;;;5022416;28;20037;-57
2020/12/31 15:47:50;;;;;;;80.82;30.30;;;3.30;99.90;;;;;;5030218;28;20040;-56
2020/12/31 15:50:54;;;;;;;141.65;33.00;;;3.30;99.90;;;;;;5030136;28;20420;-58
2020/12/31 15:53:58;;;;;;;88.05;27.90;;;3.30;99.90;;;;;;5029808;28;20049;-55